Terminal Aerodrome Forecast
Issued by NWS

Home | Current Version | Previous Version | Text Only | Print | Product List | Glossary On
Versions: 1 2 3 4 5 6 7 8 9 10 11 12 13 14 15 16 17 18
808
FTUS43 KICT 131131
TAFCNU
TAF
KCNU 131131Z 1312/1412 05010KT P6SM OVC025
     FM131400 06009KT P6SM -FZRAPL OVC020
     FM131700 05008KT 6SM -FZRAPL OVC010
     FM140200 04006KT 4SM -FZRA OVC006
     FM140600 03007KT 2SM -FZRA OVC003=

USA.gov is the U.S. government's official web portal to all federal, state and local government web resources and services.